sensor_id;sensor_type;location;lat;lon;timestamp;pressure;altitude;pressure_sealevel;temperature;humidity
3748;BME280;1889;50.058;8.688;2023-02-13T00:01:37;102384.71;;;12.75;58.46
3748;BME280;1889;50.058;8.688;2023-02-13T00:04:06;102386.80;;;12.65;58.82
3748;BME280;1889;50.058;8.688;2023-02-13T00:06:35;102382.80;;;12.60;59.02
3748;BME280;1889;50.058;8.688;2023-02-13T00:09:05;102379.25;;;12.58;59.04
3748;BME280;1889;50.058;8.688;2023-02-13T00:11:36;102384.73;;;12.01;60.32
3748;BME280;1889;50.058;8.688;2023-02-13T00:14:05;102381.33;;;12.45;59.33
3748;BME280;1889;50.058;8.688;2023-02-13T00:16:35;102382.25;;;12.50;59.14
3748;BME280;1889;50.058;8.688;2023-02-13T00:19:04;102383.47;;;12.41;59.24
3748;BME280;1889;50.058;8.688;2023-02-13T00:21:34;102380.44;;;12.45;59.12
3748;BME280;1889;50.058;8.688;2023-02-13T00:24:03;102379.12;;;12.45;59.10
3748;BME280;1889;50.058;8.688;2023-02-13T00:26:33;102378.31;;;12.52;58.97
3748;BME280;1889;50.058;8.688;2023-02-13T00:29:02;102383.92;;;12.42;59.20
3748;BME280;1889;50.058;8.688;2023-02-13T00:31:31;102378.89;;;12.64;58.34
3748;BME280;1889;50.058;8.688;2023-02-13T00:34:01;102373.92;;;12.52;58.45
3748;BME280;1889;50.058;8.688;2023-02-13T00:36:30;102375.02;;;12.31;58.83
3748;BME280;1889;50.058;8.688;2023-02-13T00:38:59;102376.86;;;12.41;58.56
3748;BME280;1889;50.058;8.688;2023-02-13T00:41:29;102376.88;;;12.43;58.52
3748;BME280;1889;50.058;8.688;2023-02-13T00:43:58;102380.16;;;12.20;58.83
3748;BME280;1889;50.058;8.688;2023-02-13T00:46:28;102374.72;;;12.07;59.02
3748;BME280;1889;50.058;8.688;2023-02-13T00:48:57;102372.26;;;12.22;58.78
3748;BME280;1889;50.058;8.688;2023-02-13T00:51:27;102377.22;;;12.32;58.36
3748;BME280;1889;50.058;8.688;2023-02-13T00:53:57;102373.26;;;12.32;58.29
3748;BME280;1889;50.058;8.688;2023-02-13T00:56:26;102370.89;;;12.19;58.31
3748;BME280;1889;50.058;8.688;2023-02-13T00:58:55;102370.89;;;12.19;58.31
3748;BME280;1889;50.058;8.688;2023-02-13T01:01:25;102369.80;;;12.02;58.82
3748;BME280;1889;50.058;8.688;2023-02-13T01:03:54;102372.73;;;11.92;59.01
3748;BME280;1889;50.058;8.688;2023-02-13T01:06:24;102370.44;;;11.84;58.88
3748;BME280;1889;50.058;8.688;2023-02-13T01:08:54;102372.00;;;12.02;58.82
3748;BME280;1889;50.058;8.688;2023-02-13T01:11:23;102368.13;;;12.07;58.63
3748;BME280;1889;50.058;8.688;2023-02-13T01:13:52;102370.73;;;12.05;58.75
3748;BME280;1889;50.058;8.688;2023-02-13T01:16:22;102369.84;;;12.05;58.45
3748;BME280;1889;50.058;8.688;2023-02-13T01:18:51;102373.53;;;11.85;58.79
3748;BME280;1889;50.058;8.688;2023-02-13T01:21:21;102373.09;;;12.19;57.90
3748;BME280;1889;50.058;8.688;2023-02-13T01:23:51;102368.52;;;12.05;58.19
3748;BME280;1889;50.058;8.688;2023-02-13T01:26:22;102371.11;;;11.71;58.91
3748;BME280;1889;50.058;8.688;2023-02-13T01:28:53;102369.25;;;11.92;58.52
3748;BME280;1889;50.058;8.688;2023-02-13T01:31:25;102365.77;;;11.96;58.15
3748;BME280;1889;50.058;8.688;2023-02-13T01:33:58;102364.02;;;11.96;58.13
3748;BME280;1889;50.058;8.688;2023-02-13T01:36:27;102367.91;;;11.90;58.04
3748;BME280;1889;50.058;8.688;2023-02-13T01:38:57;102365.71;;;11.93;57.78
3748;BME280;1889;50.058;8.688;2023-02-13T01:41:27;102368.78;;;11.92;57.73
3748;BME280;1889;50.058;8.688;2023-02-13T01:43:58;102366.22;;;11.97;57.50
3748;BME280;1889;50.058;8.688;2023-02-13T01:46:40;102372.67;;;11.86;57.99
3748;BME280;1889;50.058;8.688;2023-02-13T01:49:16;102369.95;;;11.80;58.24
3748;BME280;1889;50.058;8.688;2023-02-13T01:51:46;102362.52;;;11.82;58.25
3748;BME280;1889;50.058;8.688;2023-02-13T01:54:20;102363.77;;;11.78;58.28
3748;BME280;1889;50.058;8.688;2023-02-13T01:56:51;102362.36;;;11.73;58.49
3748;BME280;1889;50.058;8.688;2023-02-13T01:59:24;102361.42;;;11.70;58.51
3748;BME280;1889;50.058;8.688;2023-02-13T02:01:56;102362.28;;;11.67;58.66
3748;BME280;1889;50.058;8.688;2023-02-13T02:04:28;102357.33;;;11.61;58.76
3748;BME280;1889;50.058;8.688;2023-02-13T02:07:03;102347.94;;;11.48;58.92
3748;BME280;1889;50.058;8.688;2023-02-13T02:09:36;102354.45;;;11.44;58.96
3748;BME280;1889;50.058;8.688;2023-02-13T02:12:19;102349.06;;;11.35;59.08
3748;BME280;1889;50.058;8.688;2023-02-13T02:14:48;102349.69;;;11.20;59.28
3748;BME280;1889;50.058;8.688;2023-02-13T02:17:17;102357.60;;;11.19;59.31
3748;BME280;1889;50.058;8.688;2023-02-13T02:20:13;102352.76;;;11.18;59.31
3748;BME280;1889;50.058;8.688;2023-02-13T02:22:51;102349.11;;;11.10;59.46
3748;BME280;1889;50.058;8.688;2023-02-13T02:31:23;102346.14;;;10.65;60.31
3748;BME280;1889;50.058;8.688;2023-02-13T02:33:54;102346.34;;;10.76;60.23
3748;BME280;1889;50.058;8.688;2023-02-13T02:36:51;102341.86;;;10.72;60.22
3748;BME280;1889;50.058;8.688;2023-02-13T02:42:18;102343.44;;;10.61;60.42
3748;BME280;1889;50.058;8.688;2023-02-13T02:47:51;102335.54;;;10.61;60.33
3748;BME280;1889;50.058;8.688;2023-02-13T02:50:42;102335.02;;;10.57;60.41
3748;BME280;1889;50.058;8.688;2023-02-13T02:53:25;102340.24;;;10.54;60.38
3748;BME280;1889;50.058;8.688;2023-02-13T02:56:08;102341.35;;;10.43;60.44
3748;BME280;1889;50.058;8.688;2023-02-13T02:59:02;102339.61;;;10.44;60.33
3748;BME280;1889;50.058;8.688;2023-02-13T03:01:50;102342.13;;;10.38;60.35
3748;BME280;1889;50.058;8.688;2023-02-13T03:04:41;102344.83;;;10.19;60.68
3748;BME280;1889;50.058;8.688;2023-02-13T03:07:28;102352.31;;;10.01;61.02
3748;BME280;1889;50.058;8.688;2023-02-13T03:10:04;102354.01;;;9.99;61.07
3748;BME280;1889;50.058;8.688;2023-02-13T03:13:09;102349.83;;;10.08;60.74
3748;BME280;1889;50.058;8.688;2023-02-13T03:15:51;102352.46;;;10.08;60.63
3748;BME280;1889;50.058;8.688;2023-02-13T03:18:42;102357.26;;;10.07;60.59
3748;BME280;1889;50.058;8.688;2023-02-13T03:21:50;102355.48;;;10.06;60.49
3748;BME280;1889;50.058;8.688;2023-02-13T03:30:57;102347.58;;;9.84;60.48
3748;BME280;1889;50.058;8.688;2023-02-13T03:34:03;102355.01;;;9.83;60.42
3748;BME280;1889;50.058;8.688;2023-02-13T03:36:53;102356.23;;;9.79;60.32
3748;BME280;1889;50.058;8.688;2023-02-13T03:39:55;102353.06;;;9.75;60.39
3748;BME280;1889;50.058;8.688;2023-02-13T03:42:31;102349.00;;;9.69;60.41
3748;BME280;1889;50.058;8.688;2023-02-13T03:45:06;102351.28;;;9.72;60.30
3748;BME280;1889;50.058;8.688;2023-02-13T03:47:55;102349.59;;;9.76;60.29
3748;BME280;1889;50.058;8.688;2023-02-13T03:50:26;102357.05;;;9.76;60.22
3748;BME280;1889;50.058;8.688;2023-02-13T03:53:02;102353.14;;;9.78;60.20
3748;BME280;1889;50.058;8.688;2023-02-13T03:55:43;102356.16;;;9.76;60.23
3748;BME280;1889;50.058;8.688;2023-02-13T03:58:35;102366.72;;;9.77;60.19
3748;BME280;1889;50.058;8.688;2023-02-13T04:01:25;102370.88;;;8.94;61.87
3748;BME280;1889;50.058;8.688;2023-02-13T04:09:14;102363.88;;;9.12;61.64
3748;BME280;1889;50.058;8.688;2023-02-13T04:12:36;102362.93;;;9.27;60.97
3748;BME280;1889;50.058;8.688;2023-02-13T04:14:29;102362.93;;;9.27;60.97
3748;BME280;1889;50.058;8.688;2023-02-13T04:17:07;102360.43;;;9.32;60.91
3748;BME280;1889;50.058;8.688;2023-02-13T04:19:36;102363.49;;;9.33;60.78
3748;BME280;1889;50.058;8.688;2023-02-13T04:22:06;102359.52;;;9.12;60.92
3748;BME280;1889;50.058;8.688;2023-02-13T04:24:35;102367.91;;;8.98;61.18
3748;BME280;1889;50.058;8.688;2023-02-13T04:27:05;102362.62;;;8.96;61.31
3748;BME280;1889;50.058;8.688;2023-02-13T04:29:34;102364.45;;;9.00;61.22
3748;BME280;1889;50.058;8.688;2023-02-13T04:32:03;102361.16;;;9.09;60.88
3748;BME280;1889;50.058;8.688;2023-02-13T04:34:33;102362.47;;;9.07;60.85
3748;BME280;1889;50.058;8.688;2023-02-13T04:37:02;102364.86;;;8.98;60.95
3748;BME280;1889;50.058;8.688;2023-02-13T04:39:31;102364.35;;;8.96;61.01
3748;BME280;1889;50.058;8.688;2023-02-13T04:42:00;102365.84;;;8.86;61.12
3748;BME280;1889;50.058;8.688;2023-02-13T04:44:30;102368.63;;;8.92;61.15
3748;BME280;1889;50.058;8.688;2023-02-13T04:46:59;102364.91;;;8.83;61.21
3748;BME280;1889;50.058;8.688;2023-02-13T04:49:28;102359.33;;;8.88;61.02
3748;BME280;1889;50.058;8.688;2023-02-13T04:51:58;102355.91;;;8.90;60.80
3748;BME280;1889;50.058;8.688;2023-02-13T04:54:27;102358.63;;;8.95;60.67
3748;BME280;1889;50.058;8.688;2023-02-13T04:56:56;102354.92;;;8.87;60.68
3748;BME280;1889;50.058;8.688;2023-02-13T04:59:26;102356.61;;;8.83;60.77
3748;BME280;1889;50.058;8.688;2023-02-13T05:01:55;102358.98;;;8.74;60.93
3748;BME280;1889;50.058;8.688;2023-02-13T05:04:26;102358.25;;;8.79;60.68
3748;BME280;1889;50.058;8.688;2023-02-13T05:06:56;102360.12;;;8.84;60.52
3748;BME280;1889;50.058;8.688;2023-02-13T05:09:25;102356.84;;;8.76;60.60
3748;BME280;1889;50.058;8.688;2023-02-13T05:11:54;102353.00;;;8.79;60.46
3748;BME280;1889;50.058;8.688;2023-02-13T05:14:23;102355.63;;;8.79;60.34
3748;BME280;1889;50.058;8.688;2023-02-13T05:16:53;102349.38;;;8.74;60.37
3748;BME280;1889;50.058;8.688;2023-02-13T05:19:22;102356.27;;;8.71;60.38
3748;BME280;1889;50.058;8.688;2023-02-13T05:21:51;102360.12;;;8.68;60.46
3748;BME280;1889;50.058;8.688;2023-02-13T05:24:38;102362.88;;;8.72;60.18
3748;BME280;1889;50.058;8.688;2023-02-13T05:27:07;102363.20;;;8.67;60.18
3748;BME280;1889;50.058;8.688;2023-02-13T05:29:37;102358.70;;;8.63;60.28
3748;BME280;1889;50.058;8.688;2023-02-13T05:32:06;102362.55;;;8.60;60.23
3748;BME280;1889;50.058;8.688;2023-02-13T05:34:35;102364.89;;;8.65;59.96
3748;BME280;1889;50.058;8.688;2023-02-13T05:37:05;102358.17;;;8.59;60.11
3748;BME280;1889;50.058;8.688;2023-02-13T05:39:34;102359.39;;;8.56;60.16
3748;BME280;1889;50.058;8.688;2023-02-13T05:42:04;102359.03;;;8.60;59.93
3748;BME280;1889;50.058;8.688;2023-02-13T05:44:33;102356.20;;;8.52;60.16
3748;BME280;1889;50.058;8.688;2023-02-13T05:47:03;102353.56;;;8.51;60.29
3748;BME280;1889;50.058;8.688;2023-02-13T05:49:32;102357.50;;;8.51;60.26
3748;BME280;1889;50.058;8.688;2023-02-13T05:52:01;102363.13;;;8.49;60.17
3748;BME280;1889;50.058;8.688;2023-02-13T05:54:30;102362.03;;;8.40;60.33
3748;BME280;1889;50.058;8.688;2023-02-13T05:57:00;102362.50;;;8.41;60.45
3748;BME280;1889;50.058;8.688;2023-02-13T05:59:29;102367.06;;;8.49;60.17
3748;BME280;1889;50.058;8.688;2023-02-13T06:01:58;102362.61;;;8.46;60.20
3748;BME280;1889;50.058;8.688;2023-02-13T06:04:28;102363.86;;;8.43;60.38
3748;BME280;1889;50.058;8.688;2023-02-13T06:06:57;102369.43;;;8.39;60.47
3748;BME280;1889;50.058;8.688;2023-02-13T06:09:26;102362.23;;;8.32;60.56
3748;BME280;1889;50.058;8.688;2023-02-13T06:11:56;102361.77;;;8.31;60.54
3748;BME280;1889;50.058;8.688;2023-02-13T06:14:25;102363.60;;;8.34;60.36
3748;BME280;1889;50.058;8.688;2023-02-13T06:16:54;102364.44;;;8.33;60.35
3748;BME280;1889;50.058;8.688;2023-02-13T06:19:24;102360.79;;;8.14;60.71
3748;BME280;1889;50.058;8.688;2023-02-13T06:21:53;102357.59;;;8.08;60.89
3748;BME280;1889;50.058;8.688;2023-02-13T06:24:22;102358.11;;;8.11;60.89
3748;BME280;1889;50.058;8.688;2023-02-13T06:26:51;102356.86;;;8.14;60.88
3748;BME280;1889;50.058;8.688;2023-02-13T06:29:21;102353.45;;;8.16;60.87
3748;BME280;1889;50.058;8.688;2023-02-13T06:31:50;102356.06;;;8.16;60.88
3748;BME280;1889;50.058;8.688;2023-02-13T06:34:19;102355.71;;;8.20;60.94
3748;BME280;1889;50.058;8.688;2023-02-13T06:36:49;102360.75;;;8.28;60.98
3748;BME280;1889;50.058;8.688;2023-02-13T06:39:19;102359.95;;;8.30;61.10
3748;BME280;1889;50.058;8.688;2023-02-13T06:41:49;102359.48;;;8.14;62.09
3748;BME280;1889;50.058;8.688;2023-02-13T06:44:18;102361.38;;;8.19;61.83
3748;BME280;1889;50.058;8.688;2023-02-13T06:46:47;102369.22;;;8.32;61.50
3748;BME280;1889;50.058;8.688;2023-02-13T06:49:17;102367.44;;;8.31;61.59
3748;BME280;1889;50.058;8.688;2023-02-13T06:51:46;102363.38;;;8.28;61.64
3748;BME280;1889;50.058;8.688;2023-02-13T06:54:15;102366.76;;;8.38;61.66
3748;BME280;1889;50.058;8.688;2023-02-13T06:56:45;102371.33;;;8.15;62.39
3748;BME280;1889;50.058;8.688;2023-02-13T06:59:14;102379.50;;;8.10;62.72
3748;BME280;1889;50.058;8.688;2023-02-13T07:01:43;102376.66;;;7.88;63.76
3748;BME280;1889;50.058;8.688;2023-02-13T07:04:13;102377.57;;;8.04;63.17
3748;BME280;1889;50.058;8.688;2023-02-13T07:06:42;102370.86;;;8.14;62.89
3748;BME280;1889;50.058;8.688;2023-02-13T07:09:11;102378.41;;;8.18;62.81
3748;BME280;1889;50.058;8.688;2023-02-13T07:11:41;102375.69;;;8.15;62.87
3748;BME280;1889;50.058;8.688;2023-02-13T07:14:10;102380.84;;;8.27;62.75
3748;BME280;1889;50.058;8.688;2023-02-13T07:16:39;102376.36;;;8.37;62.69
3748;BME280;1889;50.058;8.688;2023-02-13T07:19:09;102385.54;;;8.08;63.71
3748;BME280;1889;50.058;8.688;2023-02-13T07:21:38;102386.61;;;8.30;63.10
3748;BME280;1889;50.058;8.688;2023-02-13T07:24:07;102386.02;;;8.24;63.17
3748;BME280;1889;50.058;8.688;2023-02-13T07:26:37;102385.17;;;8.39;62.97
3748;BME280;1889;50.058;8.688;2023-02-13T07:29:06;102385.06;;;8.52;62.76
3748;BME280;1889;50.058;8.688;2023-02-13T07:31:35;102391.14;;;8.50;62.84
3748;BME280;1889;50.058;8.688;2023-02-13T07:34:06;102384.33;;;8.40;63.16
3748;BME280;1889;50.058;8.688;2023-02-13T07:36:35;102380.44;;;8.42;63.26
3748;BME280;1889;50.058;8.688;2023-02-13T07:39:05;102383.48;;;8.57;62.98
3748;BME280;1889;50.058;8.688;2023-02-13T07:41:34;102383.31;;;8.68;62.76
3748;BME280;1889;50.058;8.688;2023-02-13T07:44:03;102389.30;;;8.63;62.99
3748;BME280;1889;50.058;8.688;2023-02-13T07:46:33;102388.51;;;8.65;63.06
3748;BME280;1889;50.058;8.688;2023-02-13T07:49:02;102391.55;;;8.65;63.27
3748;BME280;1889;50.058;8.688;2023-02-13T07:51:32;102388.44;;;8.79;63.11
3748;BME280;1889;50.058;8.688;2023-02-13T07:54:01;102385.16;;;8.88;62.93
3748;BME280;1889;50.058;8.688;2023-02-13T07:56:31;102390.09;;;8.93;62.94
3748;BME280;1889;50.058;8.688;2023-02-13T07:59:00;102393.42;;;8.86;63.29
3748;BME280;1889;50.058;8.688;2023-02-13T08:01:29;102390.94;;;8.92;63.33
3748;BME280;1889;50.058;8.688;2023-02-13T08:03:59;102393.05;;;8.88;63.54
3748;BME280;1889;50.058;8.688;2023-02-13T08:06:28;102393.00;;;8.87;63.73
3748;BME280;1889;50.058;8.688;2023-02-13T08:08:57;102387.22;;;8.83;64.09
3748;BME280;1889;50.058;8.688;2023-02-13T08:11:44;102393.47;;;8.88;63.96
3748;BME280;1889;50.058;8.688;2023-02-13T08:14:24;102396.41;;;8.83;64.28
3748;BME280;1889;50.058;8.688;2023-02-13T08:16:54;102398.23;;;8.69;64.83
3748;BME280;1889;50.058;8.688;2023-02-13T08:19:23;102399.09;;;8.23;66.65
3748;BME280;1889;50.058;8.688;2023-02-13T08:21:53;102409.26;;;8.12;67.38
3748;BME280;1889;50.058;8.688;2023-02-13T08:24:22;102403.75;;;8.17;67.13
3748;BME280;1889;50.058;8.688;2023-02-13T08:26:52;102405.17;;;8.22;66.91
3748;BME280;1889;50.058;8.688;2023-02-13T08:29:21;102406.86;;;7.90;68.08
3748;BME280;1889;50.058;8.688;2023-02-13T08:31:50;102402.74;;;8.42;66.95
3748;BME280;1889;50.058;8.688;2023-02-13T08:34:20;102402.61;;;8.86;65.48
3748;BME280;1889;50.058;8.688;2023-02-13T08:36:49;102402.70;;;8.89;64.72
3748;BME280;1889;50.058;8.688;2023-02-13T08:39:18;102405.39;;;8.92;64.93
3748;BME280;1889;50.058;8.688;2023-02-13T08:41:48;102414.36;;;8.22;66.61
3748;BME280;1889;50.058;8.688;2023-02-13T08:44:17;102415.09;;;8.46;66.98
3748;BME280;1889;50.058;8.688;2023-02-13T08:46:46;102410.33;;;8.80;65.43
3748;BME280;1889;50.058;8.688;2023-02-13T08:49:16;102410.45;;;9.02;64.93
3748;BME280;1889;50.058;8.688;2023-02-13T08:51:45;102408.39;;;9.06;64.62
3748;BME280;1889;50.058;8.688;2023-02-13T08:54:15;102414.75;;;8.65;64.90
3748;BME280;1889;50.058;8.688;2023-02-13T08:56:44;102425.89;;;8.27;67.38
3748;BME280;1889;50.058;8.688;2023-02-13T08:59:13;102415.52;;;7.73;69.60
3748;BME280;1889;50.058;8.688;2023-02-13T09:01:42;102416.09;;;8.21;67.88
3748;BME280;1889;50.058;8.688;2023-02-13T09:04:12;102416.78;;;8.00;69.11
3748;BME280;1889;50.058;8.688;2023-02-13T09:06:45;102420.25;;;7.85;69.92
3748;BME280;1889;50.058;8.688;2023-02-13T09:09:14;102424.64;;;8.30;68.95
3748;BME280;1889;50.058;8.688;2023-02-13T09:11:44;102426.09;;;8.33;68.12
3748;BME280;1889;50.058;8.688;2023-02-13T09:14:13;102423.48;;;8.20;69.10
3748;BME280;1889;50.058;8.688;2023-02-13T09:16:43;102425.47;;;8.57;68.08
3748;BME280;1889;50.058;8.688;2023-02-13T09:19:12;102417.00;;;8.85;67.12
3748;BME280;1889;50.058;8.688;2023-02-13T09:21:41;102417.01;;;8.67;67.30
3748;BME280;1889;50.058;8.688;2023-02-13T09:24:10;102420.41;;;8.80;67.58
3748;BME280;1889;50.058;8.688;2023-02-13T09:26:40;102414.72;;;8.20;69.90
3748;BME280;1889;50.058;8.688;2023-02-13T09:29:09;102418.52;;;8.75;68.40
3748;BME280;1889;50.058;8.688;2023-02-13T09:31:38;102410.35;;;8.97;67.43
3748;BME280;1889;50.058;8.688;2023-02-13T09:34:08;102407.22;;;9.12;66.66
3748;BME280;1889;50.058;8.688;2023-02-13T09:36:37;102398.77;;;9.24;66.45
3748;BME280;1889;50.058;8.688;2023-02-13T09:39:06;102401.21;;;9.16;66.67
3748;BME280;1889;50.058;8.688;2023-02-13T09:41:39;102392.38;;;9.31;66.31
3748;BME280;1889;50.058;8.688;2023-02-13T09:46:43;102397.38;;;9.56;65.73
3748;BME280;1889;50.058;8.688;2023-02-13T09:49:16;102398.02;;;9.67;65.29
3748;BME280;1889;50.058;8.688;2023-02-13T09:51:49;102398.36;;;9.26;66.34
3748;BME280;1889;50.058;8.688;2023-02-13T09:54:18;102396.64;;;9.45;66.21
3748;BME280;1889;50.058;8.688;2023-02-13T09:56:57;102402.00;;;9.49;65.78
3748;BME280;1889;50.058;8.688;2023-02-13T10:05:09;102399.25;;;9.82;64.94
3748;BME280;1889;50.058;8.688;2023-02-13T10:07:53;102396.14;;;9.80;64.58
3748;BME280;1889;50.058;8.688;2023-02-13T10:10:40;102406.24;;;9.08;66.78
3748;BME280;1889;50.058;8.688;2023-02-13T10:21:22;102401.73;;;9.95;64.98
3748;BME280;1889;50.058;8.688;2023-02-13T10:24:06;102405.50;;;10.08;64.49
3748;BME280;1889;50.058;8.688;2023-02-13T10:26:39;102406.92;;;9.73;65.27
3748;BME280;1889;50.058;8.688;2023-02-13T10:29:15;102408.44;;;10.01;64.73
3748;BME280;1889;50.058;8.688;2023-02-13T10:32:05;102407.70;;;10.08;64.32
3748;BME280;1889;50.058;8.688;2023-02-13T10:34:38;102404.45;;;10.18;64.40
3748;BME280;1889;50.058;8.688;2023-02-13T10:37:11;102404.23;;;10.28;64.13
3748;BME280;1889;50.058;8.688;2023-02-13T10:39:43;102399.19;;;10.00;63.96
3748;BME280;1889;50.058;8.688;2023-02-13T10:44:58;102396.75;;;10.27;64.33
3748;BME280;1889;50.058;8.688;2023-02-13T10:47:56;102395.78;;;10.44;63.33
3748;BME280;1889;50.058;8.688;2023-02-13T10:50:42;102389.02;;;10.58;63.50
3748;BME280;1889;50.058;8.688;2023-02-13T10:53:18;102391.30;;;10.62;63.26
3748;BME280;1889;50.058;8.688;2023-02-13T10:56:03;102384.25;;;10.62;63.21
3748;BME280;1889;50.058;8.688;2023-02-13T10:58:50;102385.66;;;10.90;62.31
3748;BME280;1889;50.058;8.688;2023-02-13T11:04:21;102363.19;;;10.61;62.10
3748;BME280;1889;50.058;8.688;2023-02-13T11:07:01;102363.19;;;10.61;62.10
3748;BME280;1889;50.058;8.688;2023-02-13T11:09:33;102364.35;;;10.77;61.56
3748;BME280;1889;50.058;8.688;2023-02-13T11:12:25;102361.58;;;10.95;61.17
3748;BME280;1889;50.058;8.688;2023-02-13T11:15:05;102357.75;;;11.01;60.72
3748;BME280;1889;50.058;8.688;2023-02-13T11:17:31;102353.61;;;10.91;60.66
3748;BME280;1889;50.058;8.688;2023-02-13T11:20:07;102350.43;;;11.12;60.46
3748;BME280;1889;50.058;8.688;2023-02-13T11:22:39;102344.12;;;11.00;60.57
3748;BME280;1889;50.058;8.688;2023-02-13T11:25:24;102342.77;;;11.25;59.92
3748;BME280;1889;50.058;8.688;2023-02-13T11:28:09;102340.78;;;11.40;59.86
3748;BME280;1889;50.058;8.688;2023-02-13T11:30:38;102339.20;;;11.51;58.85
3748;BME280;1889;50.058;8.688;2023-02-13T11:33:26;102339.81;;;11.64;59.02
3748;BME280;1889;50.058;8.688;2023-02-13T11:36:06;102337.93;;;11.56;58.37
3748;BME280;1889;50.058;8.688;2023-02-13T11:38:35;102319.34;;;11.77;58.75
3748;BME280;1889;50.058;8.688;2023-02-13T11:41:10;102319.34;;;11.77;58.75
3748;BME280;1889;50.058;8.688;2023-02-13T11:43:48;102319.11;;;11.92;57.69
3748;BME280;1889;50.058;8.688;2023-02-13T11:46:21;102330.59;;;11.97;57.34
3748;BME280;1889;50.058;8.688;2023-02-13T11:49:03;102328.78;;;11.91;56.56
3748;BME280;1889;50.058;8.688;2023-02-13T11:51:43;102327.41;;;12.27;57.16
3748;BME280;1889;50.058;8.688;2023-02-13T11:56:54;102315.99;;;12.74;56.63
3748;BME280;1889;50.058;8.688;2023-02-13T11:59:25;102315.63;;;12.82;55.00
3748;BME280;1889;50.058;8.688;2023-02-13T12:04:45;102309.88;;;12.78;54.56
3748;BME280;1889;50.058;8.688;2023-02-13T12:09:52;102307.20;;;13.30;54.69
3748;BME280;1889;50.058;8.688;2023-02-13T12:12:29;102299.59;;;13.13;52.97
3748;BME280;1889;50.058;8.688;2023-02-13T12:15:00;102303.16;;;13.16;53.06
3748;BME280;1889;50.058;8.688;2023-02-13T12:17:31;102300.28;;;13.46;52.85
3748;BME280;1889;50.058;8.688;2023-02-13T12:20:02;102301.58;;;13.47;52.42
3748;BME280;1889;50.058;8.688;2023-02-13T12:22:43;102302.16;;;13.69;51.79
3748;BME280;1889;50.058;8.688;2023-02-13T12:25:33;102301.16;;;13.49;50.34
3748;BME280;1889;50.058;8.688;2023-02-13T12:28:14;102301.73;;;13.79;50.71
3748;BME280;1889;50.058;8.688;2023-02-13T12:31:11;102300.80;;;13.65;50.10
3748;BME280;1889;50.058;8.688;2023-02-13T12:34:00;102299.12;;;13.88;50.15
3748;BME280;1889;50.058;8.688;2023-02-13T12:37:02;102298.22;;;13.80;49.95
3748;BME280;1889;50.058;8.688;2023-02-13T12:39:35;102300.05;;;13.93;48.91
3748;BME280;1889;50.058;8.688;2023-02-13T12:45:01;102283.70;;;13.95;49.29
3748;BME280;1889;50.058;8.688;2023-02-13T12:47:37;102271.86;;;14.09;49.84
3748;BME280;1889;50.058;8.688;2023-02-13T12:50:23;102276.27;;;14.13;49.19
3748;BME280;1889;50.058;8.688;2023-02-13T12:52:59;102274.98;;;14.30;48.10
3748;BME280;1889;50.058;8.688;2023-02-13T13:09:35;102247.61;;;14.19;47.79
3748;BME280;1889;50.058;8.688;2023-02-13T13:15:10;102255.94;;;14.00;48.02
3748;BME280;1889;50.058;8.688;2023-02-13T13:17:45;102247.98;;;13.98;47.43
3748;BME280;1889;50.058;8.688;2023-02-13T13:20:40;102251.95;;;13.97;47.42
3748;BME280;1889;50.058;8.688;2023-02-13T13:28:39;102244.92;;;14.02;47.27
3748;BME280;1889;50.058;8.688;2023-02-13T13:31:11;102247.55;;;13.93;47.70
3748;BME280;1889;50.058;8.688;2023-02-13T13:33:45;102246.23;;;13.99;47.01
3748;BME280;1889;50.058;8.688;2023-02-13T13:36:23;102241.75;;;13.75;46.57
3748;BME280;1889;50.058;8.688;2023-02-13T13:41:51;102238.27;;;13.91;47.05
3748;BME280;1889;50.058;8.688;2023-02-13T13:50:03;102228.19;;;14.26;46.81
3748;BME280;1889;50.058;8.688;2023-02-13T13:52:35;102221.56;;;14.32;46.71
3748;BME280;1889;50.058;8.688;2023-02-13T13:55:20;102221.59;;;14.44;46.58
3748;BME280;1889;50.058;8.688;2023-02-13T14:02:46;102220.72;;;14.54;45.79
3748;BME280;1889;50.058;8.688;2023-02-13T14:05:57;102213.18;;;14.19;44.87
3748;BME280;1889;50.058;8.688;2023-02-13T14:08:07;102213.18;;;14.19;44.87
3748;BME280;1889;50.058;8.688;2023-02-13T14:13:06;102211.42;;;14.34;44.40
3748;BME280;1889;50.058;8.688;2023-02-13T14:23:26;102214.92;;;14.15;44.90
3748;BME280;1889;50.058;8.688;2023-02-13T14:31:24;102213.22;;;14.57;43.89
3748;BME280;1889;50.058;8.688;2023-02-13T14:36:34;102212.75;;;14.80;43.98
3748;BME280;1889;50.058;8.688;2023-02-13T14:39:20;102204.81;;;14.74;43.94
3748;BME280;1889;50.058;8.688;2023-02-13T14:44:35;102194.48;;;15.37;44.07
3748;BME280;1889;50.058;8.688;2023-02-13T14:47:20;102193.65;;;15.17;42.87
3748;BME280;1889;50.058;8.688;2023-02-13T14:49:50;102192.86;;;14.91;42.75
3748;BME280;1889;50.058;8.688;2023-02-13T14:52:30;102194.17;;;14.87;42.66
3748;BME280;1889;50.058;8.688;2023-02-13T14:55:06;102187.98;;;14.96;42.91
3748;BME280;1889;50.058;8.688;2023-02-13T14:57:33;102191.49;;;15.06;42.37
3748;BME280;1889;50.058;8.688;2023-02-13T15:02:57;102193.77;;;14.73;43.09
3748;BME280;1889;50.058;8.688;2023-02-13T15:05:30;102181.83;;;14.83;43.49
3748;BME280;1889;50.058;8.688;2023-02-13T15:08:12;102181.83;;;14.83;43.49
3748;BME280;1889;50.058;8.688;2023-02-13T15:10:48;102184.91;;;14.91;42.69
3748;BME280;1889;50.058;8.688;2023-02-13T15:16:08;102177.34;;;15.07;43.49
3748;BME280;1889;50.058;8.688;2023-02-13T15:18:43;102179.58;;;14.94;42.26
3748;BME280;1889;50.058;8.688;2023-02-13T15:21:20;102179.58;;;14.94;42.26
3748;BME280;1889;50.058;8.688;2023-02-13T15:23:53;102179.65;;;14.56;43.59
3748;BME280;1889;50.058;8.688;2023-02-13T15:26:25;102179.65;;;14.56;43.59
3748;BME280;1889;50.058;8.688;2023-02-13T15:29:01;102177.90;;;14.41;43.45
3748;BME280;1889;50.058;8.688;2023-02-13T15:31:32;102177.90;;;14.41;43.45
3748;BME280;1889;50.058;8.688;2023-02-13T15:34:02;102179.66;;;14.49;43.57
3748;BME280;1889;50.058;8.688;2023-02-13T15:36:39;102178.77;;;14.47;43.58
3748;BME280;1889;50.058;8.688;2023-02-13T15:39:14;102178.30;;;14.60;43.51
3748;BME280;1889;50.058;8.688;2023-02-13T15:41:41;102173.88;;;14.21;44.00
3748;BME280;1889;50.058;8.688;2023-02-13T15:44:19;102182.25;;;14.11;44.05
3748;BME280;1889;50.058;8.688;2023-02-13T15:46:49;102177.39;;;14.05;44.31
3748;BME280;1889;50.058;8.688;2023-02-13T15:49:21;102178.72;;;13.99;44.25
3748;BME280;1889;50.058;8.688;2023-02-13T15:52:04;102175.18;;;13.92;44.34